createdAt,value
2022-08-17T00:00:42.987Z,5.40
2022-08-17T00:03:24.784Z,4.57
2022-08-17T00:06:01.366Z,5.00
2022-08-17T00:08:38.056Z,5.17
2022-08-17T00:11:11.906Z,4.90
2022-08-17T00:13:47.974Z,5.17
2022-08-17T00:16:56.047Z,4.87
2022-08-17T00:19:22.857Z,4.53
2022-08-17T00:22:29.849Z,4.60
2022-08-17T00:24:42.833Z,4.47
2022-08-17T00:27:09.801Z,5.83
2022-08-17T00:29:36.677Z,4.87
2022-08-17T00:33:15.124Z,4.10
2022-08-17T00:34:51.851Z,5.50
2022-08-17T00:37:18.806Z,4.40
2022-08-17T00:39:45.779Z,4.87
2022-08-17T00:42:18.750Z,4.80
2022-08-17T00:44:46.581Z,5.03
2022-08-17T00:47:13.549Z,4.90
2022-08-17T00:49:40.710Z,4.90
2022-08-17T00:52:20.002Z,4.90
2022-08-17T00:54:54.670Z,4.53
2022-08-17T00:57:55.058Z,4.60
2022-08-17T01:00:36.426Z,5.50
2022-08-17T01:03:21.290Z,5.30
2022-08-17T01:05:55.934Z,5.47
2022-08-17T01:08:29.395Z,5.30
2022-08-17T01:11:02.216Z,5.10
2022-08-17T01:13:41.696Z,4.73
2022-08-17T01:16:28.292Z,5.37
2022-08-17T01:19:10.710Z,5.30
2022-08-17T01:22:03.201Z,5.30
2022-08-17T01:24:31.863Z,5.77
2022-08-17T01:27:02.511Z,5.50
2022-08-17T01:29:43.194Z,4.93
2022-08-17T01:32:10.358Z,5.30
2022-08-17T01:34:43.353Z,4.63
2022-08-17T01:37:14.392Z,5.37
2022-08-17T01:39:54.961Z,4.80
2022-08-17T01:42:37.582Z,4.47
2022-08-17T01:45:19.275Z,5.43
2022-08-17T01:47:46.223Z,5.50
2022-08-17T01:50:26.369Z,5.50
2022-08-17T01:53:03.379Z,5.93
2022-08-17T01:55:45.659Z,5.47
2022-08-17T01:58:13.551Z,5.67
2022-08-17T02:00:59.525Z,5.27
2022-08-17T02:03:27.462Z,5.57
2022-08-17T02:05:54.983Z,4.90
2022-08-17T02:08:38.699Z,4.47
2022-08-17T02:11:15.674Z,4.03
2022-08-17T02:13:45.399Z,4.47
2022-08-17T02:16:13.504Z,4.47
2022-08-17T02:18:41.144Z,4.17
2022-08-17T02:21:09.039Z,4.20
2022-08-17T02:23:48.228Z,3.80
2022-08-17T02:26:25.806Z,4.00
2022-08-17T02:28:54.213Z,3.87
2022-08-17T02:31:21.231Z,4.23
2022-08-17T02:34:00.209Z,4.23
2022-08-17T02:36:36.035Z,4.00
2022-08-17T02:39:08.669Z,4.07
2022-08-17T02:41:37.193Z,4.00
2022-08-17T02:44:05.875Z,4.23
2022-08-17T02:46:33.300Z,4.10
2022-08-17T02:49:00.781Z,4.77
2022-08-17T02:51:28.104Z,4.20
2022-08-17T02:54:38.799Z,3.93
2022-08-17T02:56:42.762Z,4.00
2022-08-17T02:59:09.640Z,4.00
2022-08-17T03:01:36.652Z,3.80
2022-08-17T03:04:03.968Z,4.37
2022-08-17T03:06:31.693Z,4.30
2022-08-17T03:08:58.924Z,4.43
2022-08-17T03:11:25.798Z,4.27
2022-08-17T03:13:52.776Z,3.70
2022-08-17T03:16:19.864Z,3.90
2022-08-17T03:18:46.829Z,3.87
2022-08-17T03:21:13.825Z,3.67
2022-08-17T03:23:43.545Z,4.07
2022-08-17T03:26:15.538Z,4.37
2022-08-17T03:28:43.417Z,3.93
2022-08-17T03:31:10.392Z,4.47
2022-08-17T03:33:37.421Z,4.90
2022-08-17T03:36:05.053Z,4.40
2022-08-17T03:38:39.444Z,4.60
2022-08-17T03:41:07.117Z,3.80
2022-08-17T03:43:34.690Z,3.97
2022-08-17T03:46:28.423Z,4.00
2022-08-17T03:49:26.742Z,4.70
2022-08-17T03:52:15.517Z,4.80
2022-08-17T03:55:03.637Z,4.90
2022-08-17T03:57:32.331Z,4.00
2022-08-17T03:59:59.716Z,4.43
2022-08-17T04:02:35.733Z,4.37
2022-08-17T04:05:03.319Z,5.00
2022-08-17T04:07:31.882Z,4.60
2022-08-17T04:09:59.830Z,3.90
2022-08-17T04:12:31.770Z,4.30
2022-08-17T04:14:59.174Z,4.23
2022-08-17T04:17:29.431Z,3.50
2022-08-17T04:19:56.924Z,3.97
2022-08-17T04:22:30.823Z,4.00
2022-08-17T04:25:15.033Z,4.00
2022-08-17T04:27:42.044Z,4.33
2022-08-17T04:30:10.319Z,4.30
2022-08-17T04:33:10.211Z,4.40
2022-08-17T04:35:49.971Z,4.27
2022-08-17T04:38:24.280Z,4.20
2022-08-17T04:41:11.048Z,3.90
2022-08-17T04:43:42.254Z,4.37
2022-08-17T04:46:25.114Z,4.03
2022-08-17T04:48:57.027Z,5.40
2022-08-17T04:51:36.143Z,4.07
2022-08-17T04:54:20.042Z,3.90
2022-08-17T04:56:47.699Z,4.40
2022-08-17T04:59:20.563Z,4.27
2022-08-17T05:01:51.603Z,3.97
2022-08-17T05:04:34.036Z,4.50
2022-08-17T05:07:04.127Z,3.97
2022-08-17T05:09:31.503Z,4.10
2022-08-17T05:12:02.323Z,4.40
2022-08-17T05:14:33.347Z,5.00
2022-08-17T05:17:02.062Z,3.90
2022-08-17T05:19:36.535Z,4.10
2022-08-17T05:22:07.203Z,4.50
2022-08-17T05:24:39.129Z,4.00
2022-08-17T05:27:10.819Z,4.53
2022-08-17T05:29:45.642Z,4.83
2022-08-17T05:32:38.288Z,4.20
2022-08-17T05:35:01.212Z,3.50
2022-08-17T05:37:28.331Z,4.47
2022-08-17T05:39:55.300Z,3.40
2022-08-17T05:42:22.524Z,4.20
2022-08-17T05:44:49.523Z,4.70
2022-08-17T05:47:18.168Z,4.40
2022-08-17T05:49:49.066Z,4.33
2022-08-17T05:52:50.078Z,3.83
2022-08-17T05:55:53.617Z,4.10
2022-08-17T05:59:09.488Z,3.67
2022-08-17T06:02:05.093Z,3.97
2022-08-17T06:05:20.765Z,3.40
2022-08-17T06:08:26.756Z,3.60
2022-08-17T06:11:31.060Z,3.70
2022-08-17T06:14:25.136Z,3.80
2022-08-17T06:17:04.245Z,3.43
2022-08-17T06:19:45.595Z,3.80
2022-08-17T06:22:20.117Z,3.67
2022-08-17T06:25:23.789Z,3.60
2022-08-17T06:28:02.434Z,3.77
2022-08-17T06:31:00.081Z,3.47
2022-08-17T06:33:39.302Z,3.57
2022-08-17T06:36:25.122Z,4.50
2022-08-17T06:39:19.743Z,3.97
2022-08-17T06:42:54.088Z,3.70
2022-08-17T06:45:49.346Z,3.40
2022-08-17T06:48:41.854Z,4.00
2022-08-17T06:51:29.357Z,3.90
2022-08-17T06:54:33.706Z,3.50
2022-08-17T06:57:28.403Z,3.57
2022-08-17T07:00:12.547Z,3.57
2022-08-17T07:03:11.579Z,3.90
2022-08-17T07:06:17.003Z,3.70
2022-08-17T07:08:52.586Z,3.23
2022-08-17T07:11:40.531Z,3.73
2022-08-17T07:14:43.166Z,3.87
2022-08-17T07:17:18.254Z,4.57
2022-08-17T07:19:55.549Z,3.73
2022-08-17T07:23:18.970Z,3.40
2022-08-17T07:25:47.591Z,3.60
2022-08-17T07:28:23.009Z,3.53
2022-08-17T07:30:54.561Z,2.70
2022-08-17T07:33:32.498Z,3.20
2022-08-17T07:36:00.815Z,3.40
2022-08-17T07:38:35.416Z,4.13
2022-08-17T07:41:08.335Z,2.80
2022-08-17T07:43:41.362Z,3.83
2022-08-17T07:46:40.775Z,3.53
2022-08-17T07:49:10.407Z,3.80
2022-08-17T07:51:43.151Z,3.33
2022-08-17T07:54:15.525Z,3.37
2022-08-17T07:56:52.268Z,3.27
2022-08-17T07:59:34.776Z,3.43
2022-08-17T08:04:58.998Z,3.37
2022-08-17T08:07:17.739Z,3.00
2022-08-17T08:10:05.571Z,2.63
2022-08-17T08:13:05.560Z,2.93
2022-08-17T08:16:11.469Z,2.73
2022-08-17T08:18:54.006Z,2.67
2022-08-17T08:22:02.205Z,2.73
2022-08-17T08:25:24.336Z,2.90
2022-08-17T08:28:29.714Z,3.10
2022-08-17T08:31:17.651Z,3.00
2022-08-17T08:35:00.548Z,3.23
2022-08-17T08:37:47.940Z,2.80
2022-08-17T08:40:40.581Z,2.83
2022-08-17T08:44:09.292Z,3.20
2022-08-17T08:47:30.402Z,3.10
2022-08-17T08:50:37.133Z,3.00
2022-08-17T08:53:55.393Z,3.33
2022-08-17T08:57:19.197Z,3.03
2022-08-17T08:59:42.011Z,3.73
2022-08-17T09:02:49.857Z,2.83
2022-08-17T09:05:48.623Z,2.83
2022-08-17T09:09:07.205Z,2.77
2022-08-17T09:12:31.417Z,2.87
2022-08-17T09:15:13.181Z,3.10
2022-08-17T09:19:03.265Z,2.70
2022-08-17T09:21:48.004Z,2.73
2022-08-17T09:24:43.241Z,2.90
2022-08-17T09:27:31.034Z,2.83
2022-08-17T09:30:08.342Z,3.13
2022-08-17T09:32:55.490Z,2.70
2022-08-17T09:35:46.441Z,3.47
2022-08-17T09:38:59.830Z,3.40
2022-08-17T09:42:29.485Z,3.50
2022-08-17T09:45:38.842Z,3.50
2022-08-17T09:48:27.491Z,3.13
2022-08-17T09:51:19.865Z,2.80
2022-08-17T09:53:47.245Z,3.50
2022-08-17T09:57:29.752Z,3.13
2022-08-17T10:00:17.819Z,3.33
2022-08-17T10:03:50.667Z,3.57
2022-08-17T10:06:33.178Z,3.50
2022-08-17T10:09:18.345Z,3.40
2022-08-17T10:12:17.389Z,3.30
2022-08-17T10:15:15.474Z,3.40
2022-08-17T10:18:11.589Z,2.70
2022-08-17T10:21:23.589Z,3.00
2022-08-17T10:24:31.514Z,3.37
2022-08-17T10:27:07.451Z,3.30
2022-08-17T10:29:48.940Z,3.10
2022-08-17T10:32:37.454Z,3.40
2022-08-17T10:35:25.802Z,3.00
2022-08-17T10:38:15.285Z,3.20
2022-08-17T10:41:02.690Z,3.47
2022-08-17T10:44:38.902Z,3.47
2022-08-17T10:47:11.544Z,3.13
2022-08-17T10:49:53.687Z,3.27
2022-08-17T10:52:20.600Z,3.33
2022-08-17T10:54:58.607Z,3.57
2022-08-17T10:57:44.655Z,3.20
2022-08-17T11:00:25.512Z,3.10
2022-08-17T11:02:57.846Z,3.43
2022-08-17T11:05:59.463Z,2.60
2022-08-17T11:08:47.302Z,3.27
2022-08-17T11:11:52.601Z,2.93
2022-08-17T11:15:22.162Z,3.03
2022-08-17T11:18:53.450Z,3.87
2022-08-17T11:22:10.562Z,3.30
2022-08-17T11:24:50.226Z,3.07
2022-08-17T11:27:35.491Z,3.57
2022-08-17T11:30:35.834Z,3.37
2022-08-17T11:33:29.051Z,2.83
2022-08-17T11:36:40.233Z,3.17
2022-08-17T11:39:37.598Z,2.80
2022-08-17T11:43:28.575Z,3.30
2022-08-17T11:46:45.582Z,2.90
2022-08-17T11:50:29.442Z,2.70
2022-08-17T11:52:56.662Z,2.70
2022-08-17T11:55:37.506Z,3.27
2022-08-17T11:58:28.963Z,2.60
2022-08-17T12:01:08.366Z,3.03
2022-08-17T12:03:35.226Z,2.80
2022-08-17T12:06:43.919Z,2.80
2022-08-17T12:09:24.905Z,3.00
2022-08-17T12:12:22.537Z,3.10
2022-08-17T12:15:10.181Z,2.80
2022-08-17T12:17:40.093Z,3.90
2022-08-17T12:20:33.651Z,3.07
2022-08-17T12:23:26.467Z,2.90
2022-08-17T12:26:19.348Z,2.77
2022-08-17T12:28:59.930Z,2.87
2022-08-17T12:31:52.232Z,3.40
2022-08-17T12:34:27.766Z,3.00
2022-08-17T12:37:04.480Z,2.90
2022-08-17T12:39:33.970Z,3.40
2022-08-17T12:42:02.853Z,2.80
2022-08-17T12:44:49.990Z,2.63
2022-08-17T12:47:22.730Z,2.60
2022-08-17T12:49:54.704Z,2.73
2022-08-17T12:52:32.825Z,2.90
2022-08-17T12:55:22.361Z,2.70
2022-08-17T12:57:59.582Z,3.60
2022-08-17T13:00:32.066Z,2.90
2022-08-17T13:03:00.356Z,2.70
2022-08-17T13:05:39.292Z,2.83
2022-08-17T13:08:41.132Z,2.93
2022-08-17T13:11:24.542Z,3.13
2022-08-17T13:13:56.229Z,2.83
2022-08-17T13:16:33.253Z,2.50
2022-08-17T13:19:16.080Z,2.90
2022-08-17T13:21:54.750Z,2.70
2022-08-17T13:24:37.839Z,2.87
2022-08-17T13:27:15.264Z,2.63
2022-08-17T13:29:44.839Z,2.90
2022-08-17T13:32:13.441Z,2.93
2022-08-17T13:35:15.536Z,3.30
2022-08-17T13:38:03.341Z,2.83
2022-08-17T13:40:59.477Z,2.63
2022-08-17T13:43:50.389Z,2.70
2022-08-17T13:46:31.216Z,3.00
2022-08-17T13:49:11.930Z,2.30
2022-08-17T13:51:49.421Z,3.30
2022-08-17T13:54:37.536Z,2.60
2022-08-17T13:57:11.943Z,2.80
2022-08-17T13:59:55.109Z,2.97
2022-08-17T14:02:27.630Z,3.30
2022-08-17T14:04:58.500Z,3.27
2022-08-17T14:07:38.011Z,2.60
2022-08-17T14:10:18.181Z,3.17
2022-08-17T14:12:46.110Z,3.20
2022-08-17T14:15:19.177Z,3.27
2022-08-17T14:17:49.041Z,3.30
2022-08-17T14:20:21.831Z,3.20
2022-08-17T14:22:55.745Z,3.73
2022-08-17T14:25:28.481Z,3.00
2022-08-17T14:27:56.453Z,3.60
2022-08-17T14:30:29.800Z,3.00
2022-08-17T14:32:58.927Z,2.97
2022-08-17T14:35:27.993Z,3.40
2022-08-17T14:37:56.647Z,3.00
2022-08-17T14:40:25.378Z,3.37
2022-08-17T14:42:56.084Z,4.27
2022-08-17T14:45:30.367Z,3.30
2022-08-17T14:48:03.971Z,3.33
2022-08-17T14:50:31.833Z,3.07
2022-08-17T14:52:59.130Z,3.20
2022-08-17T14:55:29.628Z,3.47
2022-08-17T14:57:56.871Z,3.30
2022-08-17T15:00:24.006Z,3.43
2022-08-17T15:02:58.273Z,3.90
2022-08-17T15:05:34.363Z,3.40
2022-08-17T15:08:02.937Z,3.43
2022-08-17T15:10:32.271Z,3.67
2022-08-17T15:13:00.299Z,3.20
2022-08-17T15:15:28.902Z,3.67
2022-08-17T15:17:56.096Z,3.70
2022-08-17T15:20:29.652Z,3.17
2022-08-17T15:22:58.866Z,3.40
2022-08-17T15:25:32.008Z,3.53
2022-08-17T15:28:00.696Z,3.40
2022-08-17T15:30:29.335Z,3.90
2022-08-17T15:33:00.662Z,3.67
2022-08-17T15:35:33.018Z,3.87
2022-08-17T15:38:11.101Z,4.03
2022-08-17T15:40:44.377Z,3.90
2022-08-17T15:43:32.375Z,3.30
2022-08-17T15:46:07.700Z,3.13
2022-08-17T15:48:41.681Z,3.30
2022-08-17T15:51:23.312Z,3.23
2022-08-17T15:54:19.354Z,3.30
2022-08-17T15:56:50.008Z,3.60
2022-08-17T15:59:16.969Z,3.63
2022-08-17T16:03:12.973Z,3.90
2022-08-17T16:04:31.831Z,4.13
2022-08-17T16:07:00.241Z,3.70
2022-08-17T16:09:27.826Z,3.90
2022-08-17T16:11:55.842Z,3.50
2022-08-17T16:14:30.330Z,3.73
2022-08-17T16:17:04.377Z,3.30
2022-08-17T16:19:34.135Z,4.10
2022-08-17T16:22:01.517Z,3.73
2022-08-17T16:24:29.492Z,3.57
2022-08-17T16:26:56.760Z,3.43
2022-08-17T16:29:24.212Z,3.50
2022-08-17T16:31:51.773Z,4.13
2022-08-17T16:34:19.075Z,3.20
2022-08-17T16:36:55.741Z,3.87
2022-08-17T16:39:31.342Z,3.67
2022-08-17T16:41:58.441Z,3.80
2022-08-17T16:44:31.545Z,3.50
2022-08-17T16:47:01.554Z,3.80
2022-08-17T16:49:36.551Z,3.90
2022-08-17T16:52:10.665Z,4.03
2022-08-17T16:54:44.504Z,3.97
2022-08-17T16:57:13.954Z,4.27
2022-08-17T16:59:47.807Z,3.83
2022-08-17T17:02:25.094Z,3.77
2022-08-17T17:05:51.453Z,4.00
2022-08-17T17:08:48.207Z,3.67
2022-08-17T17:11:34.055Z,3.57
2022-08-17T17:14:11.589Z,4.00
2022-08-17T17:17:03.241Z,4.07
2022-08-17T17:19:56.806Z,3.73
2022-08-17T17:23:05.734Z,3.47
2022-08-17T17:25:40.458Z,4.10
2022-08-17T17:28:34.025Z,3.90
2022-08-17T17:31:14.545Z,4.27
2022-08-17T17:33:53.172Z,3.67
2022-08-17T17:36:43.026Z,3.37
2022-08-17T17:39:15.155Z,4.17
2022-08-17T17:41:52.656Z,4.40
2022-08-17T17:44:32.051Z,4.60
2022-08-17T17:47:03.766Z,4.00
2022-08-17T17:49:43.691Z,4.03
2022-08-17T17:52:37.252Z,4.20
2022-08-17T17:55:36.618Z,3.60
2022-08-17T17:58:48.439Z,4.10
2022-08-17T18:01:48.855Z,4.00
2022-08-17T18:04:56.784Z,4.20
2022-08-17T18:07:48.687Z,4.30
2022-08-17T18:10:49.815Z,3.63
2022-08-17T18:14:14.660Z,3.60
2022-08-17T18:16:45.399Z,3.80
2022-08-17T18:19:20.683Z,4.17
2022-08-17T18:22:14.020Z,4.77
2022-08-17T18:24:47.815Z,3.80
2022-08-17T18:27:38.411Z,4.97
2022-08-17T18:30:13.847Z,4.30
2022-08-17T18:32:51.207Z,4.60
2022-08-17T18:35:30.421Z,3.93
2022-08-17T18:38:29.951Z,3.80
2022-08-17T18:41:31.780Z,4.30
2022-08-17T18:44:45.850Z,3.97
2022-08-17T18:47:19.901Z,4.00
2022-08-17T18:50:23.485Z,4.03
2022-08-17T18:52:51.334Z,4.30
2022-08-17T18:55:29.892Z,4.13
2022-08-17T18:58:21.206Z,4.00
2022-08-17T19:00:50.593Z,4.40
2022-08-17T19:03:20.055Z,4.80
2022-08-17T19:06:17.996Z,4.40
2022-08-17T19:08:45.225Z,4.20
2022-08-17T19:11:35.603Z,4.73
2022-08-17T19:14:14.844Z,4.13
2022-08-17T19:17:23.361Z,4.60
2022-08-17T19:20:12.354Z,4.03
2022-08-17T19:22:56.329Z,4.20
2022-08-17T19:25:52.654Z,4.17
2022-08-17T19:28:53.157Z,4.50
2022-08-17T19:31:27.525Z,4.50
2022-08-17T19:33:57.385Z,4.57
2022-08-17T19:37:02.427Z,4.37
2022-08-17T19:39:42.613Z,4.20
2022-08-17T19:42:29.457Z,3.90
2022-08-17T19:45:25.974Z,4.33
2022-08-17T19:49:02.485Z,4.10
2022-08-17T19:52:20.763Z,4.57
2022-08-17T19:55:04.614Z,4.53
2022-08-17T19:58:17.778Z,4.30
2022-08-17T20:00:53.982Z,4.00
2022-08-17T20:03:41.201Z,4.73
2022-08-17T20:06:13.785Z,4.00
2022-08-17T20:09:18.845Z,4.40
2022-08-17T20:11:58.414Z,4.40
2022-08-17T20:14:41.373Z,4.80
2022-08-17T20:17:37.165Z,4.60
2022-08-17T20:20:46.893Z,5.10
2022-08-17T20:24:00.088Z,5.17
2022-08-17T20:26:57.928Z,5.30
2022-08-17T20:29:39.594Z,5.50
2022-08-17T20:32:26.038Z,4.93
2022-08-17T20:35:39.624Z,5.20
2022-08-17T20:38:33.230Z,5.47
2022-08-17T20:41:03.767Z,5.10
2022-08-17T20:43:33.317Z,5.40
2022-08-17T20:46:22.781Z,5.60
2022-08-17T20:49:21.692Z,4.60
2022-08-17T20:52:48.346Z,5.07
2022-08-17T20:55:51.929Z,5.63
2022-08-17T20:58:31.300Z,5.37
2022-08-17T21:01:01.462Z,5.20
2022-08-17T21:03:28.502Z,5.40
2022-08-17T21:06:22.172Z,5.20
2022-08-17T21:09:18.663Z,5.43
2022-08-17T21:12:03.067Z,5.60
2022-08-17T21:15:28.355Z,4.90
2022-08-17T21:18:38.671Z,5.20
2022-08-17T21:22:01.378Z,4.90
2022-08-17T21:24:56.834Z,5.50
2022-08-17T21:27:59.787Z,4.60
2022-08-17T21:30:29.462Z,4.73
2022-08-17T21:33:20.307Z,4.50
2022-08-17T21:36:24.644Z,4.87
2022-08-17T21:39:06.251Z,5.37
2022-08-17T21:41:47.699Z,4.60
2022-08-17T21:44:17.588Z,4.83
2022-08-17T21:46:49.300Z,5.00
2022-08-17T21:49:26.432Z,4.63
2022-08-17T21:51:56.472Z,4.27
2022-08-17T21:54:39.829Z,5.90
2022-08-17T21:57:21.263Z,4.63
2022-08-17T22:00:01.397Z,4.60
2022-08-17T22:02:41.717Z,4.67
2022-08-17T22:05:14.016Z,4.83
2022-08-17T22:08:02.116Z,4.53
2022-08-17T22:10:39.430Z,4.73
2022-08-17T22:13:18.366Z,4.63
2022-08-17T22:16:27.697Z,5.00
2022-08-17T22:18:57.561Z,5.17
2022-08-17T22:21:25.213Z,4.67
2022-08-17T22:24:17.848Z,5.13
2022-08-17T22:27:11.495Z,5.00
2022-08-17T22:29:59.751Z,4.90
2022-08-17T22:32:45.817Z,4.93
2022-08-17T22:35:43.824Z,5.33
2022-08-17T22:38:19.959Z,6.10
2022-08-17T22:41:14.970Z,4.90
2022-08-17T22:43:44.688Z,5.60
2022-08-17T22:46:12.855Z,5.40
2022-08-17T22:48:54.378Z,5.03
2022-08-17T22:51:28.666Z,5.23
2022-08-17T22:54:31.182Z,4.93
2022-08-17T22:57:23.938Z,5.20
2022-08-17T22:59:55.550Z,4.50
2022-08-17T23:02:35.515Z,4.60
2022-08-17T23:05:23.923Z,5.37
2022-08-17T23:07:53.152Z,5.60
2022-08-17T23:10:20.330Z,4.90
2022-08-17T23:12:47.884Z,5.70
2022-08-17T23:15:19.868Z,5.70
2022-08-17T23:17:47.620Z,4.83
2022-08-17T23:20:17.383Z,4.73
2022-08-17T23:22:52.114Z,5.40
2022-08-17T23:25:32.155Z,5.27
2022-08-17T23:28:04.140Z,4.70
2022-08-17T23:30:39.215Z,5.53
2022-08-17T23:33:17.567Z,5.20
2022-08-17T23:35:45.167Z,5.53
2022-08-17T23:38:13.743Z,5.20
2022-08-17T23:40:41.502Z,5.27
2022-08-17T23:43:24.560Z,5.20
2022-08-17T23:45:56.023Z,5.50
2022-08-17T23:48:28.512Z,5.83
2022-08-17T23:51:16.556Z,5.60
2022-08-17T23:53:51.295Z,7.60
2022-08-17T23:56:24.397Z,6.03
2022-08-17T23:58:54.742Z,6.93
